createdAt,value
2022-10-19T00:00:34.971Z,994.6
2022-10-19T00:15:08.178Z,994.5
2022-10-19T00:29:40.493Z,994.5
2022-10-19T00:44:12.975Z,994.5
2022-10-19T00:58:47.158Z,994.4
2022-10-19T01:13:19.910Z,994.5
2022-10-19T01:27:52.120Z,994.5
2022-10-19T01:42:23.837Z,994.4
2022-10-19T01:56:57.608Z,994.4
2022-10-19T02:11:30.745Z,994.3
2022-10-19T02:26:04.391Z,994.1
2022-10-19T02:40:34.786Z,994
2022-10-19T02:55:05.491Z,993.8
2022-10-19T03:09:37.794Z,993.7
2022-10-19T03:24:10.804Z,993.6
2022-10-19T03:38:44.950Z,993.8
2022-10-19T03:53:16.334Z,993.7
2022-10-19T04:07:49.689Z,994
2022-10-19T04:22:21.115Z,994.1
2022-10-19T04:36:52.896Z,994
2022-10-19T04:51:32.520Z,993.9
2022-10-19T05:06:08.454Z,993.8
2022-10-19T05:20:37.583Z,993.6
2022-10-19T05:35:10.114Z,993.6
2022-10-19T05:49:49.758Z,993.5
2022-10-19T06:04:25.776Z,993.6
2022-10-19T06:18:56.976Z,993.6
2022-10-19T06:33:30.848Z,993.7
2022-10-19T06:48:08.170Z,993.7
2022-10-19T07:02:38.127Z,993.7
2022-10-19T07:17:11.374Z,993.8
2022-10-19T07:31:45.004Z,993.9
2022-10-19T07:46:18.526Z,993.8
2022-10-19T08:00:52.891Z,993.9
2022-10-19T08:15:30.029Z,993.9
2022-10-19T08:30:04.949Z,993.9
2022-10-19T08:44:37.951Z,993.8
2022-10-19T08:59:14.880Z,993.6
2022-10-19T09:14:06.677Z,993.4
2022-10-19T09:28:40.553Z,993.2
2022-10-19T09:43:10.221Z,993.2
2022-10-19T09:57:38.837Z,993
2022-10-19T10:12:17.331Z,993
2022-10-19T10:26:53.364Z,992.9
2022-10-19T10:41:23.024Z,992.8
2022-10-19T10:55:57.079Z,992.7
2022-10-19T11:10:30.085Z,992.6
2022-10-19T11:25:03.749Z,992.4
2022-10-19T11:39:36.760Z,992.1
2022-10-19T11:54:17.614Z,991.8
2022-10-19T12:08:56.802Z,991.7
2022-10-19T12:23:25.772Z,991.6
2022-10-19T12:38:05.433Z,991.3
2022-10-19T12:52:36.246Z,991
2022-10-19T13:07:08.746Z,991
2022-10-19T13:21:43.028Z,990.7
2022-10-19T13:36:17.394Z,990.7
2022-10-19T13:50:47.430Z,990.5
2022-10-19T14:05:18.079Z,990.3
2022-10-19T14:19:49.668Z,990.3
2022-10-19T14:34:23.947Z,990.4
2022-10-19T14:48:56.398Z,990.2
2022-10-19T15:03:29.037Z,990
2022-10-19T15:18:05.256Z,990
2022-10-19T15:32:36.378Z,989.9
2022-10-19T15:47:09.400Z,989.9
2022-10-19T16:01:41.386Z,989.7
2022-10-19T16:16:19.569Z,989.4
2022-10-19T16:30:54.627Z,989.3
2022-10-19T16:45:23.695Z,989.4
2022-10-19T16:59:55.717Z,989.2
2022-10-19T17:14:28.461Z,989.2
2022-10-19T17:29:01.707Z,989
2022-10-19T17:43:35.004Z,989.2
2022-10-19T17:58:09.760Z,989.3
2022-10-19T18:12:42.151Z,989.2
2022-10-19T18:27:20.855Z,989.1
2022-10-19T18:41:56.636Z,989
2022-10-19T18:56:26.935Z,988.7
2022-10-19T19:11:00.342Z,988.5
2022-10-19T19:25:38.806Z,988.5
2022-10-19T19:40:13.979Z,988.3
2022-10-19T19:54:43.607Z,988.4
2022-10-19T20:09:16.379Z,988.4
2022-10-19T20:23:49.758Z,988.3
2022-10-19T20:38:23.359Z,988.1
2022-10-19T20:52:56.718Z,988
2022-10-19T21:07:27.980Z,988
2022-10-19T21:22:01.744Z,987.9
2022-10-19T21:36:38.477Z,987.7
2022-10-19T21:51:11.132Z,987.4
2022-10-19T22:05:42.910Z,987.2
2022-10-19T22:20:15.942Z,987.3
2022-10-19T22:34:47.843Z,987.2
2022-10-19T22:49:20.814Z,987.2
2022-10-19T23:03:54.691Z,986.9
2022-10-19T23:18:33.965Z,986.8
2022-10-19T23:33:08.651Z,986.6
2022-10-19T23:47:39.283Z,986.4
